Time;durP1;ratioP1;P1;durP2;ratioP2;P2;SDS_P1;SDS_P2;PMS_P1;PMS_P2;Temp;Humidity;BMP_temperature;BMP_pressure;BME280_temperature;BME280_humidity;BME280_pressure;Samples;Min_cycle;Max_cycle;Signal;HPM_P1;HPM_P2
2024/01/22 00:02:06;;;;;;;11.90;5.30;;;;;;;;;;4935159;29;20426;-78
2024/01/22 00:04:32;;;;;;;10.33;3.40;;;;;;;;;;4934014;29;20462;-80
2024/01/22 00:06:58;;;;;;;7.63;3.87;;;;;;;;;;4935119;29;20518;-77
2024/01/22 00:09:24;;;;;;;10.23;5.37;;;;;;;;;;4938292;29;20823;-79
2024/01/22 00:11:50;;;;;;;8.70;4.73;;;;;;;;;;4938638;29;20426;-81
2024/01/22 00:14:16;;;;;;;5.33;3.80;;;;;;;;;;4937269;29;20921;-77
2024/01/22 00:16:41;;;;;;;10.10;5.80;;;;;;;;;;4934125;29;20915;-85
2024/01/22 00:19:08;;;;;;;7.70;3.60;;;;;;;;;;4952411;28;20422;-77
2024/01/22 00:21:34;;;;;;;5.47;3.33;;;;;;;;;;4938027;29;20477;-78
2024/01/22 00:24:00;;;;;;;7.63;4.77;;;;;;;;;;4937680;29;20411;-78
2024/01/22 00:26:26;;;;;;;7.97;4.73;;;;;;;;;;4938043;29;20420;-79
2024/01/22 00:28:51;;;;;;;9.03;4.67;;;;;;;;;;4952346;28;20444;-78
2024/01/22 00:31:17;;;;;;;9.93;6.07;;;;;;;;;;4937836;29;20422;-79
2024/01/22 00:33:44;;;;;;;8.03;4.60;;;;;;;;;;4952768;28;20927;-79
2024/01/22 00:36:18;;;;;;;11.87;6.30;;;;;;;;;;4938057;28;20426;-77
2024/01/22 00:38:44;;;;;;;6.80;5.20;;;;;;;;;;4937776;29;20440;-81
2024/01/22 00:41:10;;;;;;;9.90;4.70;;;;;;;;;;4937835;29;20482;-80
2024/01/22 00:43:37;;;;;;;9.20;5.90;;;;;;;;;;4937456;29;20421;-78
2024/01/22 00:46:03;;;;;;;8.43;4.13;;;;;;;;;;4937930;28;20430;-80
2024/01/22 00:48:29;;;;;;;11.10;5.00;;;;;;;;;;4937653;29;20916;-78
2024/01/22 00:50:55;;;;;;;8.07;4.40;;;;;;;;;;4936560;29;20453;-79
2024/01/22 00:53:21;;;;;;;9.60;4.83;;;;;;;;;;4937064;29;20453;-78
2024/01/22 00:55:47;;;;;;;8.87;5.23;;;;;;;;;;4937488;29;20471;-80
2024/01/22 00:58:15;;;;;;;7.83;4.53;;;;;;;;;;4951848;28;20424;-79
2024/01/22 01:00:41;;;;;;;7.50;5.30;;;;;;;;;;4937331;28;20477;-79
2024/01/22 01:03:08;;;;;;;10.00;5.30;;;;;;;;;;4937554;28;20422;-78
2024/01/22 01:05:33;;;;;;;7.70;5.13;;;;;;;;;;4937261;29;20455;-80
2024/01/22 01:07:59;;;;;;;7.67;4.93;;;;;;;;;;4937397;29;20501;-78
2024/01/22 01:10:25;;;;;;;12.33;5.80;;;;;;;;;;4935729;29;20514;-78
2024/01/22 01:12:51;;;;;;;13.00;6.70;;;;;;;;;;4936839;28;20509;-81
2024/01/22 01:15:19;;;;;;;6.70;4.20;;;;;;;;;;4937258;28;20442;-78
2024/01/22 01:17:45;;;;;;;7.77;5.00;;;;;;;;;;4937325;29;20442;-77
2024/01/22 01:20:11;;;;;;;7.50;4.43;;;;;;;;;;4936816;28;20525;-77
2024/01/22 01:22:37;;;;;;;8.87;5.20;;;;;;;;;;4936986;29;20407;-79
2024/01/22 01:25:03;;;;;;;10.03;5.17;;;;;;;;;;4937045;29;20421;-79
2024/01/22 01:27:29;;;;;;;11.80;5.60;;;;;;;;;;4937100;29;20411;-82
2024/01/22 01:29:55;;;;;;;8.33;5.17;;;;;;;;;;4936691;29;20511;-81
2024/01/22 01:32:21;;;;;;;7.40;4.70;;;;;;;;;;4937060;29;20757;-77
2024/01/22 01:34:47;;;;;;;8.80;4.90;;;;;;;;;;4935748;29;20452;-80
2024/01/22 01:37:13;;;;;;;11.60;5.93;;;;;;;;;;4936973;29;20418;-80
2024/01/22 01:39:39;;;;;;;6.40;3.83;;;;;;;;;;4936675;29;20826;-83
2024/01/22 01:42:05;;;;;;;6.30;4.10;;;;;;;;;;4936856;29;20435;-80
2024/01/22 01:44:44;;;;;;;11.17;4.73;;;;;;;;;;4936585;29;20485;-79
2024/01/22 01:47:10;;;;;;;6.40;4.13;;;;;;;;;;4936793;29;20910;-78
2024/01/22 01:49:36;;;;;;;7.50;3.93;;;;;;;;;;4936578;29;20418;-77
2024/01/22 01:52:02;;;;;;;8.20;3.43;;;;;;;;;;4936203;29;20453;-81
2024/01/22 01:54:29;;;;;;;7.20;4.07;;;;;;;;;;4936514;29;20775;-78
2024/01/22 01:56:55;;;;;;;8.50;4.57;;;;;;;;;;4936159;29;20429;-78
2024/01/22 01:59:21;;;;;;;10.90;4.37;;;;;;;;;;4936159;29;20783;-79
2024/01/22 02:01:47;;;;;;;6.83;2.93;;;;;;;;;;4936276;29;20479;-78
2024/01/22 02:04:22;;;;;;;6.87;4.43;;;;;;;;;;4936272;29;20411;-80
2024/01/22 02:06:48;;;;;;;7.53;3.90;;;;;;;;;;4936203;29;20911;-77
2024/01/22 02:09:14;;;;;;;7.03;3.20;;;;;;;;;;4936386;29;20414;-77
2024/01/22 02:11:40;;;;;;;7.20;4.00;;;;;;;;;;4936082;29;20416;-77
2024/01/22 02:14:05;;;;;;;6.00;2.93;;;;;;;;;;4935623;29;20843;-81
2024/01/22 02:16:31;;;;;;;6.10;3.20;;;;;;;;;;4936194;29;20430;-81
2024/01/22 02:18:57;;;;;;;5.40;4.10;;;;;;;;;;4936174;29;20422;-78
2024/01/22 02:21:23;;;;;;;6.40;3.20;;;;;;;;;;4950005;28;20550;-78
2024/01/22 02:23:49;;;;;;;6.57;2.60;;;;;;;;;;4936055;29;20410;-78
2024/01/22 02:26:15;;;;;;;7.23;3.43;;;;;;;;;;4936000;29;20403;-77
2024/01/22 02:28:41;;;;;;;5.33;3.53;;;;;;;;;;4935611;29;20506;-78
2024/01/22 02:31:08;;;;;;;7.53;3.73;;;;;;;;;;4935027;29;20454;-79
2024/01/22 02:33:34;;;;;;;9.97;4.20;;;;;;;;;;4935900;29;20417;-77
2024/01/22 02:36:00;;;;;;;9.50;3.50;;;;;;;;;;4936003;29;20398;-77
2024/01/22 02:38:26;;;;;;;7.20;3.80;;;;;;;;;;4935800;29;20423;-77
2024/01/22 02:40:52;;;;;;;4.17;2.60;;;;;;;;;;4935696;29;20470;-78
2024/01/22 02:43:18;;;;;;;6.90;3.70;;;;;;;;;;4935372;29;20407;-81
2024/01/22 02:45:44;;;;;;;7.73;3.77;;;;;;;;;;4935766;29;20422;-77
2024/01/22 02:48:10;;;;;;;4.93;2.47;;;;;;;;;;4935809;29;20437;-78
2024/01/22 02:50:36;;;;;;;7.77;3.23;;;;;;;;;;4935689;29;20430;-76
2024/01/22 02:53:01;;;;;;;5.50;2.33;;;;;;;;;;4935868;29;20474;-75
2024/01/22 02:55:27;;;;;;;6.90;3.57;;;;;;;;;;4935826;29;20818;-76
2024/01/22 02:57:53;;;;;;;6.87;3.10;;;;;;;;;;4949175;28;20418;-77
2024/01/22 03:00:19;;;;;;;10.37;3.60;;;;;;;;;;4935790;29;20813;-76
2024/01/22 03:02:45;;;;;;;5.43;3.30;;;;;;;;;;4950589;28;20429;-76
2024/01/22 03:05:11;;;;;;;5.70;2.93;;;;;;;;;;4935954;29;20416;-77
2024/01/22 03:07:37;;;;;;;7.47;2.30;;;;;;;;;;4935898;29;20566;-76
2024/01/22 03:10:03;;;;;;;6.47;2.97;;;;;;;;;;4934826;29;20439;-76
2024/01/22 03:12:29;;;;;;;6.90;3.43;;;;;;;;;;4935313;29;20413;-77
2024/01/22 03:14:58;;;;;;;7.33;3.03;;;;;;;;;;4935718;29;20427;-77
2024/01/22 03:17:24;;;;;;;6.40;3.20;;;;;;;;;;4950438;28;20428;-77
2024/01/22 03:19:50;;;;;;;5.50;2.80;;;;;;;;;;4935435;29;21107;-77
2024/01/22 03:22:15;;;;;;;6.73;2.90;;;;;;;;;;4950463;28;20470;-77
2024/01/22 03:24:46;;;;;;;5.80;2.63;;;;;;;;;;4935667;29;20746;-77
2024/01/22 03:27:12;;;;;;;5.03;2.57;;;;;;;;;;4935665;29;20423;-77
2024/01/22 03:29:44;;;;;;;7.80;2.80;;;;;;;;;;4935241;29;20426;-78
2024/01/22 03:32:10;;;;;;;4.43;2.80;;;;;;;;;;4935589;29;20415;-76
2024/01/22 03:34:36;;;;;;;6.23;2.97;;;;;;;;;;4935415;28;20430;-77
2024/01/22 03:37:08;;;;;;;6.03;2.73;;;;;;;;;;4935637;29;20517;-76
2024/01/22 03:39:34;;;;;;;7.13;2.43;;;;;;;;;;4935541;29;20533;-78
2024/01/22 03:42:00;;;;;;;5.77;2.43;;;;;;;;;;4936859;29;20420;-79
2024/01/22 03:44:25;;;;;;;3.73;2.87;;;;;;;;;;4939047;29;20410;-76
2024/01/22 03:46:51;;;;;;;6.60;2.30;;;;;;;;;;4950732;28;20918;-78
2024/01/22 03:49:17;;;;;;;6.10;2.43;;;;;;;;;;4920255;29;20420;-77
2024/01/22 03:51:43;;;;;;;6.83;2.67;;;;;;;;;;4934764;29;20434;-78
2024/01/22 03:54:09;;;;;;;5.27;2.10;;;;;;;;;;4920213;29;20453;-77
2024/01/22 03:56:38;;;;;;;5.83;1.53;;;;;;;;;;4920116;29;20425;-76
2024/01/22 03:59:04;;;;;;;4.50;2.30;;;;;;;;;;4934328;29;21047;-76
2024/01/22 04:01:30;;;;;;;5.60;1.93;;;;;;;;;;4934516;29;20538;-76
2024/01/22 04:03:59;;;;;;;4.57;2.67;;;;;;;;;;4939074;29;20453;-76
2024/01/22 04:06:25;;;;;;;4.13;2.20;;;;;;;;;;4938388;29;20510;-77
2024/01/22 04:08:51;;;;;;;4.97;2.47;;;;;;;;;;4953225;28;20503;-77
2024/01/22 04:11:17;;;;;;;3.10;1.37;;;;;;;;;;4953027;28;20811;-77
2024/01/22 04:13:43;;;;;;;3.23;1.57;;;;;;;;;;4937978;29;20511;-77
2024/01/22 04:16:13;;;;;;;6.03;1.67;;;;;;;;;;4938284;29;20506;-77
2024/01/22 04:18:45;;;;;;;4.17;1.67;;;;;;;;;;4938193;29;20421;-77
2024/01/22 04:21:11;;;;;;;4.00;1.60;;;;;;;;;;4950510;28;20865;-76
2024/01/22 04:23:37;;;;;;;4.03;1.93;;;;;;;;;;4938182;29;20447;-77
2024/01/22 04:26:04;;;;;;;4.03;1.70;;;;;;;;;;4938046;29;20806;-87
2024/01/22 04:28:30;;;;;;;4.60;1.90;;;;;;;;;;4937713;29;20790;-87
2024/01/22 04:30:56;;;;;;;3.00;1.90;;;;;;;;;;4938112;29;20450;-81
2024/01/22 04:33:21;;;;;;;5.77;3.07;;;;;;;;;;4938132;29;20438;-84
2024/01/22 04:35:51;;;;;;;4.97;2.07;;;;;;;;;;4950270;28;20789;-86
2024/01/22 04:38:17;;;;;;;2.70;1.23;;;;;;;;;;4937998;29;20411;-86
2024/01/22 04:40:43;;;;;;;3.77;1.17;;;;;;;;;;4937707;29;20889;-85
2024/01/22 04:43:09;;;;;;;3.73;1.50;;;;;;;;;;4937415;29;20481;-85
2024/01/22 04:45:35;;;;;;;4.20;1.70;;;;;;;;;;4937790;29;20426;-84
2024/01/22 04:48:04;;;;;;;4.10;1.50;;;;;;;;;;4937812;29;20910;-81
2024/01/22 04:50:33;;;;;;;3.20;1.27;;;;;;;;;;4946964;29;20801;-85
2024/01/22 04:52:59;;;;;;;2.83;0.80;;;;;;;;;;4950734;29;20796;-86
2024/01/22 04:55:25;;;;;;;3.53;1.10;;;;;;;;;;4937292;29;20486;-85
2024/01/22 04:57:51;;;;;;;7.67;1.20;;;;;;;;;;4935927;29;20427;-85
2024/01/22 05:00:17;;;;;;;2.70;1.40;;;;;;;;;;4937393;29;20797;-83
2024/01/22 05:02:43;;;;;;;3.53;1.33;;;;;;;;;;4937531;29;20518;-85
2024/01/22 05:05:09;;;;;;;3.50;1.30;;;;;;;;;;4937808;29;20855;-87
2024/01/22 05:07:35;;;;;;;2.67;0.90;;;;;;;;;;4937542;29;20424;-83
2024/01/22 05:10:04;;;;;;;6.30;1.80;;;;;;;;;;4937370;29;20471;-85
2024/01/22 05:12:31;;;;;;;3.17;1.30;;;;;;;;;;4949747;29;20936;-83
2024/01/22 05:14:56;;;;;;;2.53;0.87;;;;;;;;;;4937436;29;20420;-84
2024/01/22 05:17:23;;;;;;;1.50;1.00;;;;;;;;;;4937374;29;20423;-86
2024/01/22 05:19:49;;;;;;;2.10;1.23;;;;;;;;;;4936998;29;20491;-88
2024/01/22 05:22:15;;;;;;;3.23;1.53;;;;;;;;;;4937341;29;20781;-87
2024/01/22 05:24:41;;;;;;;2.93;0.80;;;;;;;;;;4937142;29;20412;-87
2024/01/22 05:27:09;;;;;;;3.57;1.47;;;;;;;;;;4936508;29;20423;-83
2024/01/22 05:29:36;;;;;;;4.97;1.77;;;;;;;;;;4937033;29;20432;-83
2024/01/22 05:32:02;;;;;;;9.30;2.00;;;;;;;;;;4936747;29;20406;-87
2024/01/22 05:34:28;;;;;;;4.33;0.97;;;;;;;;;;4936756;28;20421;-85
2024/01/22 05:36:55;;;;;;;3.87;1.60;;;;;;;;;;4937118;28;20427;-84
2024/01/22 05:39:21;;;;;;;3.43;2.30;;;;;;;;;;4936819;29;20501;-87
2024/01/22 05:41:48;;;;;;;2.67;0.87;;;;;;;;;;4936608;29;20514;-83
2024/01/22 05:44:14;;;;;;;4.20;1.47;;;;;;;;;;4936394;29;20415;-82
2024/01/22 05:46:40;;;;;;;2.50;0.73;;;;;;;;;;4936757;29;20418;-84
2024/01/22 05:49:05;;;;;;;1.63;0.70;;;;;;;;;;4935513;29;20410;-85
2024/01/22 05:51:32;;;;;;;4.10;0.90;;;;;;;;;;4936652;29;20425;-84
2024/01/22 05:53:59;;;;;;;2.83;1.23;;;;;;;;;;4936581;29;20423;-84
2024/01/22 05:56:26;;;;;;;3.70;0.70;;;;;;;;;;4936619;29;20884;-86
2024/01/22 05:58:53;;;;;;;2.10;0.93;;;;;;;;;;4935973;29;20415;-87
2024/01/22 06:01:23;;;;;;;1.97;0.80;;;;;;;;;;4936205;29;20519;-86
2024/01/22 06:03:49;;;;;;;2.20;1.00;;;;;;;;;;4933774;29;20444;-85
2024/01/22 06:06:15;;;;;;;3.30;0.93;;;;;;;;;;4935249;29;20460;-85
2024/01/22 06:08:45;;;;;;;2.80;0.77;;;;;;;;;;4936323;29;20412;-84
2024/01/22 06:11:11;;;;;;;2.00;0.77;;;;;;;;;;4932500;29;20929;-85
2024/01/22 06:13:39;;;;;;;2.20;1.07;;;;;;;;;;4936471;29;20450;-84
2024/01/22 06:16:05;;;;;;;5.47;0.90;;;;;;;;;;4936592;29;20421;-81
2024/01/22 06:18:31;;;;;;;1.90;0.73;;;;;;;;;;4936204;29;20417;-83
2024/01/22 06:20:57;;;;;;;3.00;0.87;;;;;;;;;;4936274;29;20547;-82
2024/01/22 06:23:23;;;;;;;2.77;1.00;;;;;;;;;;4936342;29;20622;-83
2024/01/22 06:25:49;;;;;;;2.83;0.87;;;;;;;;;;4936352;29;20175;-83
2024/01/22 06:28:15;;;;;;;2.90;0.80;;;;;;;;;;4934803;29;20428;-84
2024/01/22 06:30:41;;;;;;;2.50;0.93;;;;;;;;;;4935070;29;20537;-81
2024/01/22 06:33:08;;;;;;;6.80;1.17;;;;;;;;;;4936409;29;20424;-80
2024/01/22 06:35:34;;;;;;;2.63;1.10;;;;;;;;;;4936322;29;20172;-84
2024/01/22 06:37:59;;;;;;;2.77;0.80;;;;;;;;;;4936403;29;20782;-81
2024/01/22 06:40:25;;;;;;;3.27;1.27;;;;;;;;;;4936119;29;20474;-84
2024/01/22 06:42:51;;;;;;;1.60;0.63;;;;;;;;;;4896055;29;20523;-78
2024/01/22 06:45:17;;;;;;;2.20;0.70;;;;;;;;;;4936104;29;20762;-85
2024/01/22 06:47:43;;;;;;;1.33;0.50;;;;;;;;;;4934851;29;20184;-85
2024/01/22 06:50:09;;;;;;;3.70;0.50;;;;;;;;;;4936053;29;20468;-85
2024/01/22 06:52:36;;;;;;;4.03;0.97;;;;;;;;;;4935637;29;20428;-79
2024/01/22 06:55:05;;;;;;;4.07;1.30;;;;;;;;;;4935395;29;20670;-79
2024/01/22 06:57:31;;;;;;;3.87;1.07;;;;;;;;;;4935085;29;20415;-82
2024/01/22 06:59:58;;;;;;;3.20;1.00;;;;;;;;;;4935430;28;20471;-85
2024/01/22 07:02:27;;;;;;;3.10;0.77;;;;;;;;;;4935308;29;20419;-85
2024/01/22 07:04:55;;;;;;;2.10;0.93;;;;;;;;;;4935347;29;20768;-86
2024/01/22 07:07:21;;;;;;;1.13;0.40;;;;;;;;;;4935281;29;20421;-86
2024/01/22 07:09:47;;;;;;;2.83;0.70;;;;;;;;;;4934073;29;20420;-86
2024/01/22 07:12:13;;;;;;;1.23;0.70;;;;;;;;;;4934912;28;20935;-80
2024/01/22 07:14:39;;;;;;;1.40;0.63;;;;;;;;;;4934117;29;20843;-85
2024/01/22 07:17:05;;;;;;;3.50;0.53;;;;;;;;;;4936676;28;20424;-80
2024/01/22 07:19:34;;;;;;;2.43;0.70;;;;;;;;;;4938857;28;20420;-84
2024/01/22 07:22:00;;;;;;;1.80;0.63;;;;;;;;;;4939342;29;20848;-79
2024/01/22 07:24:26;;;;;;;1.27;0.30;;;;;;;;;;4939076;29;20902;-81
2024/01/22 07:26:52;;;;;;;1.57;0.30;;;;;;;;;;4938809;28;20417;-79
2024/01/22 07:29:18;;;;;;;1.80;0.40;;;;;;;;;;4939117;29;20414;-78
2024/01/22 07:31:44;;;;;;;1.20;0.40;;;;;;;;;;4938962;29;20449;-84
2024/01/22 07:34:15;;;;;;;3.40;0.37;;;;;;;;;;4940540;28;20982;-86
2024/01/22 07:36:44;;;;;;;1.40;0.63;;;;;;;;;;4939014;29;20425;-86
2024/01/22 07:39:11;;;;;;;0.83;0.40;;;;;;;;;;4938974;29;20902;-78
2024/01/22 07:41:38;;;;;;;1.60;0.40;;;;;;;;;;4938534;28;20483;-80
2024/01/22 07:44:04;;;;;;;0.73;0.23;;;;;;;;;;4902025;29;20833;-79
2024/01/22 07:46:30;;;;;;;0.87;0.20;;;;;;;;;;4937171;28;20428;-77
2024/01/22 07:48:56;;;;;;;1.00;0.20;;;;;;;;;;4938945;29;20517;-82
2024/01/22 07:51:23;;;;;;;2.30;0.20;;;;;;;;;;4939240;29;20496;-78
2024/01/22 07:53:49;;;;;;;0.97;0.27;;;;;;;;;;4939080;29;20425;-80
2024/01/22 07:56:15;;;;;;;0.73;0.20;;;;;;;;;;4937548;29;20405;-79
2024/01/22 07:58:41;;;;;;;3.40;0.40;;;;;;;;;;4938280;29;20417;-82
2024/01/22 08:01:08;;;;;;;0.50;0.20;;;;;;;;;;4953346;28;20480;-82
2024/01/22 08:03:34;;;;;;;0.60;0.50;;;;;;;;;;4938677;28;20425;-82
2024/01/22 08:06:00;;;;;;;1.50;0.20;;;;;;;;;;4938098;29;20410;-83
2024/01/22 08:08:26;;;;;;;1.23;0.23;;;;;;;;;;4938179;29;20406;-82
2024/01/22 08:10:52;;;;;;;1.07;0.23;;;;;;;;;;4937226;29;20444;-82
2024/01/22 08:13:19;;;;;;;0.80;0.20;;;;;;;;;;4938108;29;20418;-82
2024/01/22 08:15:45;;;;;;;1.80;0.50;;;;;;;;;;4938337;29;20413;-83
2024/01/22 08:18:11;;;;;;;0.60;0.20;;;;;;;;;;4937109;29;20418;-83
2024/01/22 08:20:37;;;;;;;1.43;0.23;;;;;;;;;;4938164;29;20856;-83
2024/01/22 08:23:04;;;;;;;0.97;0.33;;;;;;;;;;4938347;29;20409;-82
2024/01/22 08:25:30;;;;;;;0.90;0.30;;;;;;;;;;4938167;29;20424;-82
2024/01/22 08:27:56;;;;;;;0.70;0.20;;;;;;;;;;4935960;29;20415;-80
2024/01/22 08:30:22;;;;;;;0.80;0.50;;;;;;;;;;4937836;28;20934;-80
2024/01/22 08:32:49;;;;;;;1.77;0.20;;;;;;;;;;4937145;29;20417;-82
2024/01/22 08:35:17;;;;;;;1.70;0.40;;;;;;;;;;4938144;29;20445;-81
2024/01/22 08:37:52;;;;;;;0.87;0.20;;;;;;;;;;4952744;28;20416;-80
2024/01/22 08:40:21;;;;;;;1.40;0.50;;;;;;;;;;4938007;29;20472;-80
2024/01/22 08:42:52;;;;;;;0.83;0.47;;;;;;;;;;4937409;28;20888;-81
2024/01/22 08:45:18;;;;;;;1.07;0.50;;;;;;;;;;4902078;29;20525;-82
2024/01/22 08:47:45;;;;;;;4.00;0.60;;;;;;;;;;4937931;29;20470;-81
2024/01/22 08:50:15;;;;;;;1.80;0.40;;;;;;;;;;4938204;28;20417;-81
2024/01/22 08:52:41;;;;;;;1.40;0.50;;;;;;;;;;4937513;29;20517;-82
2024/01/22 08:55:08;;;;;;;1.03;0.40;;;;;;;;;;4937234;29;20473;-82
2024/01/22 08:57:34;;;;;;;1.20;0.30;;;;;;;;;;4937771;29;20859;-83
2024/01/22 09:00:00;;;;;;;1.70;0.60;;;;;;;;;;4936647;29;20445;-82
2024/01/22 09:02:26;;;;;;;1.47;0.50;;;;;;;;;;4937650;29;20814;-82
2024/01/22 09:04:52;;;;;;;1.63;0.33;;;;;;;;;;4936531;29;20754;-81
2024/01/22 09:07:19;;;;;;;2.47;0.50;;;;;;;;;;4937527;28;20512;-82
2024/01/22 09:09:45;;;;;;;1.57;0.30;;;;;;;;;;4937580;29;20776;-80
2024/01/22 09:12:11;;;;;;;2.00;0.30;;;;;;;;;;4937106;29;20424;-83
2024/01/22 09:14:37;;;;;;;1.73;0.40;;;;;;;;;;4937509;29;20796;-82
2024/01/22 09:17:03;;;;;;;2.20;0.47;;;;;;;;;;4937759;29;20442;-82
2024/01/22 09:19:29;;;;;;;1.27;0.30;;;;;;;;;;4937041;29;20416;-80
2024/01/22 09:21:57;;;;;;;2.97;0.93;;;;;;;;;;4937260;29;20912;-80
2024/01/22 09:24:22;;;;;;;1.17;0.40;;;;;;;;;;4936991;29;20487;-77
2024/01/22 09:26:51;;;;;;;2.03;0.67;;;;;;;;;;4931978;29;20900;-77
2024/01/22 09:29:17;;;;;;;2.93;0.60;;;;;;;;;;4934863;29;20411;-76
2024/01/22 09:31:43;;;;;;;0.80;0.37;;;;;;;;;;4950578;28;20425;-80
2024/01/22 09:34:10;;;;;;;1.10;0.50;;;;;;;;;;4937029;29;20430;-76
2024/01/22 09:36:36;;;;;;;6.07;1.77;;;;;;;;;;4936795;29;20207;-79
2024/01/22 09:39:03;;;;;;;3.53;0.50;;;;;;;;;;4936574;29;20471;-75
2024/01/22 09:41:29;;;;;;;0.93;0.30;;;;;;;;;;4935988;29;20212;-77
2024/01/22 09:43:56;;;;;;;2.40;0.57;;;;;;;;;;4930576;29;20448;-77
2024/01/22 09:46:22;;;;;;;2.57;0.60;;;;;;;;;;4903235;29;20434;-80
2024/01/22 09:48:50;;;;;;;0.80;0.50;;;;;;;;;;4936569;28;20423;-77
2024/01/22 09:51:17;;;;;;;7.70;1.63;;;;;;;;;;4936468;29;20486;-80
2024/01/22 09:53:46;;;;;;;2.23;0.57;;;;;;;;;;4936531;28;20980;-80
2024/01/22 09:56:12;;;;;;;0.90;0.60;;;;;;;;;;4936406;29;20474;-78
2024/01/22 09:58:40;;;;;;;2.90;0.77;;;;;;;;;;4950647;28;20434;-83
2024/01/22 10:01:10;;;;;;;1.73;0.73;;;;;;;;;;4932085;29;20514;-80
2024/01/22 10:03:37;;;;;;;2.77;0.97;;;;;;;;;;4952770;28;20779;-93
2024/01/22 10:06:02;;;;;;;3.73;0.33;;;;;;;;;;4937483;29;20434;-87
2024/01/22 10:08:31;;;;;;;2.70;0.53;;;;;;;;;;4951676;28;20411;-91
2024/01/22 10:10:57;;;;;;;5.93;0.70;;;;;;;;;;4936652;29;20426;-90
2024/01/22 10:13:23;;;;;;;2.90;0.80;;;;;;;;;;4936829;29;20408;-88
2024/01/22 10:15:49;;;;;;;1.17;0.67;;;;;;;;;;4937014;29;20869;-88
2024/01/22 10:18:18;;;;;;;3.00;0.90;;;;;;;;;;4936461;29;20415;-79
2024/01/22 10:20:45;;;;;;;1.17;0.50;;;;;;;;;;4935757;29;20488;-83
2024/01/22 10:23:12;;;;;;;1.73;1.17;;;;;;;;;;4935980;29;20454;-85
2024/01/22 10:25:38;;;;;;;2.63;0.50;;;;;;;;;;4936189;29;20411;-77
2024/01/22 10:28:07;;;;;;;2.63;0.90;;;;;;;;;;4936761;29;20481;-82
2024/01/22 10:30:33;;;;;;;2.67;0.43;;;;;;;;;;4935931;29;20821;-83
2024/01/22 10:33:13;;;;;;;1.97;0.50;;;;;;;;;;4934692;29;20427;-82
2024/01/22 10:35:39;;;;;;;3.47;0.93;;;;;;;;;;4934777;29;20510;-86
2024/01/22 10:38:08;;;;;;;3.27;1.17;;;;;;;;;;4936191;29;20441;-80
2024/01/22 10:40:37;;;;;;;3.87;0.80;;;;;;;;;;4933726;29;20518;-78
2024/01/22 10:43:17;;;;;;;2.27;1.20;;;;;;;;;;4935407;29;20415;-81
2024/01/22 10:45:46;;;;;;;2.70;1.10;;;;;;;;;;4934761;29;20518;-79
2024/01/22 10:48:12;;;;;;;2.60;1.07;;;;;;;;;;4930276;29;20457;-85
2024/01/22 10:50:38;;;;;;;3.87;1.17;;;;;;;;;;4934567;29;20419;-80
2024/01/22 10:53:04;;;;;;;2.90;0.70;;;;;;;;;;4936461;29;20472;-84
2024/01/22 10:55:30;;;;;;;1.90;0.80;;;;;;;;;;4951837;28;20727;-85
2024/01/22 10:57:57;;;;;;;2.10;1.37;;;;;;;;;;4935306;29;20419;-89
2024/01/22 11:00:23;;;;;;;2.90;0.80;;;;;;;;;;4936257;29;20242;-80
2024/01/22 11:02:50;;;;;;;4.10;1.70;;;;;;;;;;4936027;29;20485;-87
2024/01/22 11:05:16;;;;;;;1.50;0.87;;;;;;;;;;4934793;29;20426;-90
2024/01/22 11:07:43;;;;;;;5.90;0.97;;;;;;;;;;4935960;28;20473;-84
2024/01/22 11:10:13;;;;;;;5.57;1.17;;;;;;;;;;4935760;29;20923;-80
2024/01/22 11:12:54;;;;;;;7.13;1.50;;;;;;;;;;4935313;28;20415;-82
2024/01/22 11:15:20;;;;;;;3.40;1.10;;;;;;;;;;4933721;29;20410;-84
2024/01/22 11:17:47;;;;;;;7.03;1.70;;;;;;;;;;4935342;29;20581;-81
2024/01/22 11:20:17;;;;;;;4.97;0.67;;;;;;;;;;4934997;29;20525;-82
2024/01/22 11:22:43;;;;;;;9.40;1.87;;;;;;;;;;4935405;29;20442;-80
2024/01/22 11:25:10;;;;;;;10.67;1.63;;;;;;;;;;4935244;29;20411;-81
2024/01/22 11:27:43;;;;;;;10.80;1.53;;;;;;;;;;4935766;29;20851;-81
2024/01/22 11:30:21;;;;;;;6.30;1.80;;;;;;;;;;4934639;29;21004;-84
2024/01/22 11:32:47;;;;;;;9.50;1.37;;;;;;;;;;4935774;29;20841;-82
2024/01/22 11:35:13;;;;;;;9.30;1.80;;;;;;;;;;4935508;29;20465;-80
2024/01/22 11:37:40;;;;;;;7.07;1.17;;;;;;;;;;4935458;29;20476;-80
2024/01/22 11:40:07;;;;;;;11.67;1.90;;;;;;;;;;4935686;29;20466;-90
2024/01/22 11:42:33;;;;;;;13.10;2.60;;;;;;;;;;4936036;29;20876;-87
2024/01/22 11:45:13;;;;;;;11.13;0.93;;;;;;;;;;4950499;28;20450;-87
2024/01/22 11:47:40;;;;;;;10.40;1.83;;;;;;;;;;4935838;28;20460;-86
2024/01/22 11:50:07;;;;;;;9.73;3.43;;;;;;;;;;4935885;29;20933;-89
2024/01/22 11:52:33;;;;;;;12.53;2.03;;;;;;;;;;4935829;29;20431;-84
2024/01/22 11:55:04;;;;;;;11.90;1.47;;;;;;;;;;4935682;29;20412;-88
2024/01/22 11:57:37;;;;;;;15.30;1.90;;;;;;;;;;4935545;29;20456;-88
2024/01/22 12:00:06;;;;;;;12.03;1.23;;;;;;;;;;4951660;28;20453;-91
2024/01/22 12:02:33;;;;;;;15.77;1.90;;;;;;;;;;4942711;29;20465;-85
2024/01/22 12:05:03;;;;;;;13.60;1.70;;;;;;;;;;4942502;29;20444;-87
2024/01/22 12:07:37;;;;;;;6.70;1.33;;;;;;;;;;4937776;29;20430;-88
2024/01/22 12:10:06;;;;;;;16.80;2.30;;;;;;;;;;4939487;29;20479;-89
2024/01/22 12:12:32;;;;;;;11.00;1.87;;;;;;;;;;4937088;29;20818;-93
2024/01/22 12:14:59;;;;;;;12.23;2.77;;;;;;;;;;4939676;29;20919;-86
2024/01/22 12:17:25;;;;;;;11.00;2.07;;;;;;;;;;4939720;29;20919;-92
2024/01/22 12:19:54;;;;;;;10.03;1.53;;;;;;;;;;4938954;29;20880;-84
2024/01/22 12:22:20;;;;;;;12.83;2.20;;;;;;;;;;4939678;29;21069;-90
2024/01/22 12:25:02;;;;;;;11.30;1.70;;;;;;;;;;4939813;29;20451;-89
2024/01/22 12:27:28;;;;;;;8.43;1.77;;;;;;;;;;4938433;29;20953;-84
2024/01/22 12:30:00;;;;;;;12.23;1.50;;;;;;;;;;4937832;29;20839;-82
2024/01/22 12:32:26;;;;;;;11.13;1.83;;;;;;;;;;4938098;29;20496;-80
2024/01/22 12:34:56;;;;;;;9.73;1.07;;;;;;;;;;4936927;29;20413;-80
2024/01/22 12:37:44;;;;;;;13.07;1.90;;;;;;;;;;4937968;29;20420;-80
2024/01/22 12:40:16;;;;;;;11.03;1.60;;;;;;;;;;4937408;29;20465;-81
2024/01/22 12:42:49;;;;;;;8.07;1.00;;;;;;;;;;4937737;29;20419;-80
2024/01/22 12:45:16;;;;;;;10.33;2.30;;;;;;;;;;4936471;29;20841;-80
2024/01/22 12:47:42;;;;;;;9.00;1.57;;;;;;;;;;4938039;29;20882;-83
2024/01/22 12:50:08;;;;;;;7.47;1.23;;;;;;;;;;4937578;29;20422;-83
2024/01/22 12:52:34;;;;;;;12.43;2.50;;;;;;;;;;4937946;29;20836;-85
2024/01/22 12:55:01;;;;;;;12.60;2.20;;;;;;;;;;4952375;28;20455;-83
2024/01/22 12:57:27;;;;;;;12.13;1.77;;;;;;;;;;4937396;29;20419;-81
2024/01/22 12:59:53;;;;;;;11.43;2.40;;;;;;;;;;4936640;28;20617;-79
2024/01/22 13:02:19;;;;;;;12.00;1.80;;;;;;;;;;4938615;28;20226;-83
2024/01/22 13:04:45;;;;;;;12.83;2.00;;;;;;;;;;4939634;29;20475;-80
2024/01/22 13:07:11;;;;;;;8.57;2.30;;;;;;;;;;4938418;29;20507;-88
2024/01/22 13:09:37;;;;;;;13.33;2.50;;;;;;;;;;4939122;29;20929;-90
2024/01/22 13:12:06;;;;;;;16.33;1.67;;;;;;;;;;4942633;29;20865;-80
2024/01/22 13:14:32;;;;;;;7.73;1.63;;;;;;;;;;4941374;29;20416;-83
2024/01/22 13:17:03;;;;;;;7.50;1.30;;;;;;;;;;4942939;29;20466;-81
2024/01/22 13:19:29;;;;;;;12.53;3.40;;;;;;;;;;4941831;29;20535;-87
2024/01/22 13:21:55;;;;;;;14.70;2.00;;;;;;;;;;4942860;29;20449;-89
2024/01/22 13:24:21;;;;;;;15.57;2.30;;;;;;;;;;4942083;29;20502;-88
2024/01/22 13:26:47;;;;;;;14.13;2.40;;;;;;;;;;4943900;29;20421;-83
2024/01/22 13:29:13;;;;;;;18.13;3.43;;;;;;;;;;4945881;28;20434;-80
2024/01/22 13:31:39;;;;;;;10.47;2.63;;;;;;;;;;4944081;28;20440;-81
2024/01/22 13:34:05;;;;;;;14.63;2.00;;;;;;;;;;4942527;29;20415;-89
2024/01/22 13:36:31;;;;;;;11.70;2.30;;;;;;;;;;4939752;29;20517;-81
2024/01/22 13:38:57;;;;;;;19.47;2.90;;;;;;;;;;4940639;29;20460;-81
2024/01/22 13:41:29;;;;;;;11.17;2.20;;;;;;;;;;4919119;29;20475;-79
2024/01/22 13:43:55;;;;;;;12.97;2.10;;;;;;;;;;4918332;29;20645;-87
2024/01/22 13:46:22;;;;;;;15.13;2.43;;;;;;;;;;4937118;29;20909;-87
2024/01/22 13:48:49;;;;;;;17.67;3.23;;;;;;;;;;4935530;28;20425;-91
2024/01/22 13:51:18;;;;;;;17.53;3.00;;;;;;;;;;4938735;29;20509;-85
2024/01/22 13:53:45;;;;;;;9.93;2.10;;;;;;;;;;4940041;29;20414;-84
2024/01/22 13:56:14;;;;;;;15.90;2.37;;;;;;;;;;4937078;29;20472;-92
2024/01/22 13:58:41;;;;;;;13.60;2.77;;;;;;;;;;4939885;29;20458;-91
2024/01/22 14:01:09;;;;;;;13.03;1.40;;;;;;;;;;4939658;29;20487;-82
2024/01/22 14:03:36;;;;;;;11.97;2.80;;;;;;;;;;4937385;29;20435;-85
2024/01/22 14:06:03;;;;;;;11.23;2.80;;;;;;;;;;4939560;29;20456;-80
2024/01/22 14:08:29;;;;;;;14.53;2.73;;;;;;;;;;4939671;28;20432;-81
2024/01/22 14:10:55;;;;;;;9.13;1.50;;;;;;;;;;4939003;28;20419;-80
2024/01/22 14:13:21;;;;;;;17.03;2.00;;;;;;;;;;4935992;28;21004;-80
2024/01/22 14:15:47;;;;;;;17.70;3.07;;;;;;;;;;4935712;28;20426;-80
2024/01/22 14:18:14;;;;;;;18.30;2.43;;;;;;;;;;4935748;29;20926;-85
2024/01/22 14:20:40;;;;;;;12.67;2.60;;;;;;;;;;4935389;29;20962;-81
2024/01/22 14:23:06;;;;;;;12.10;2.40;;;;;;;;;;4935728;29;20471;-79
2024/01/22 14:25:32;;;;;;;15.17;2.87;;;;;;;;;;4935273;29;20455;-80
2024/01/22 14:27:58;;;;;;;10.73;1.90;;;;;;;;;;4934583;28;20426;-85
2024/01/22 14:30:24;;;;;;;15.77;2.63;;;;;;;;;;4934993;29;20447;-81
2024/01/22 14:32:50;;;;;;;15.40;1.93;;;;;;;;;;4935541;28;20506;-83
2024/01/22 14:35:17;;;;;;;12.43;1.77;;;;;;;;;;4935328;29;20501;-84
2024/01/22 14:37:44;;;;;;;12.93;3.10;;;;;;;;;;4934079;28;20796;-83
2024/01/22 14:40:10;;;;;;;12.27;2.03;;;;;;;;;;4935234;29;20453;-82